RAAF Base Curtin
YCIN : now visible

Airfield :











YOU CAN JOIN US ON...

 
LOGIN :

Register | Disclaimer

   EN    FR    IT 

 









Legend :    VFR   Marginal VFR   IFR   Intensive IFR   Very Intensive IFR
Visi :
Ceiling :
>= 8 km
>= 3000ft
5 to 8 km
1000 to 3000 ft
1500m to 5 km
500 to 1000 ft
800 to 1500m
200 to 500 ft
< 800m
< 200 ft
Symbols :   Thunderstorms  Fog  Heavy snow  Heavy precipitations  Wind > 20 kt






- Airport Elevation : 300 ft


YCIN - RAAF Base Curtin

CURRENT METAR :
  • 291730Z AUTO 11005KT 9999 // OVC069 24/17 Q1015 RF00.0/000.2

EXPIRED METARs :
  • 291700Z AUTO 12006KT 9999 // OVC071 24/17 Q1015
  • 291630Z AUTO 12007KT 9999 // OVC073 24/17 Q1015 RF00.0/000.2
  • 291600Z AUTO 13005KT 9999 // OVC075 24/18 Q1015
  • 291530Z AUTO 12005KT 9999 // OVC075 OVC094 24/18 Q1015
  • 291500Z AUTO 12005KT 9999 // SCT079 OVC098 24/18 Q1015

TAF AMD TAF YCIN
Valid from the 29 at 14:00 until the 30 at 02:00 UTC


291255Z 2914/3002 09005KT 9999 -SHRA FEW020 SCT040
FM300000 14005KT 9999 FEW020
YBBB FIR / Oceania



MET'MAP, your aeronautical weather chart ! - Copyright ORBIFLY December 2007 - Disclaimer

ORBIFLY MET'MAP TEAM :

Programming & Development : Alexandra Zaïnal
Concept & original design : Baudouin d'Aumeries
Assistance for programming : Marc-Olivier Méhu
Technical & hardware support : Manuel Goepfert

Contact : metmap@orbifly.com




SOURCES & CREDITS :

   NOAA       Earth
Advisory